HWD weather

Hayward Executive Airport
Hayward, California, United States

Public forecast

Using degrees Fahrenheit for public forecast. Weather courtesy of forecast.io.

Current aviation weather report (METAR) for Hayward Executive Airport

Retrieved 2019/10/16 17:54 UTC (1 hour ago):

KHWD 161754Z VRB03KT 10SM CLR 16/11 A3003 RMK AO2 SLP177 T01560111 10156 20094 50003

Closest aviation forecast (TAF) to Hayward Executive Airport

Closest forecast is Metropolitan Oakland International Airport, 6.0 nm (11.1 km) NW. Retrieved 2019/10/16 18:30 UTC (30 minutes ago):

TAF KOAK 161728Z 1618/1724 25008KT P6SM FEW010 BKN200 FM162300 27012KT P6SM FEW010 BKN150 FM170300 25009KT P6SM SCT020 SCT050 BKN100 FM170600 24006KT P6SM -SHRA BKN014 BKN050 FM171200 29012KT P6SM BKN014 FM171800 28014KT P6SM FEW015 SCT050 FM172100 28014G19KT P6SM FEW015